Time;durP1;ratioP1;P1;durP2;ratioP2;P2;SDS_P1;SDS_P2;PMS_P1;PMS_P2;Temp;Humidity;BMP_temperature;BMP_pressure;BME280_temperature;BME280_humidity;BME280_pressure;Samples;Min_cycle;Max_cycle;Signal;HPM_P1;HPM_P2
2023/04/23 00:01:51;;;;;;;83.25;33.53;;;;;;;6.82;100.00;100613.50;5079343;28;20070;-84
2023/04/23 00:04:19;;;;;;;79.00;32.58;;;;;;;6.82;100.00;100614.34;5095390;28;20084;-84
2023/04/23 00:06:46;;;;;;;79.00;32.67;;;;;;;6.83;100.00;100609.78;5097790;28;20494;-83
2023/04/23 00:09:15;;;;;;;80.15;33.00;;;;;;;6.83;100.00;100613.28;5099867;28;20119;-84
2023/04/23 00:11:40;;;;;;;82.55;33.15;;;;;;;6.82;100.00;100608.94;5100573;28;20055;-83
2023/04/23 00:14:06;;;;;;;83.22;32.72;;;;;;;6.82;100.00;100603.56;5082912;28;20074;-84
2023/04/23 00:16:32;;;;;;;82.13;32.72;;;;;;;6.84;100.00;100608.75;5083695;28;20031;-83
2023/04/23 00:18:57;;;;;;;79.65;33.58;;;;;;;6.85;100.00;100596.94;5083328;28;20115;-84
2023/04/23 00:21:23;;;;;;;79.73;32.90;;;;;;;6.85;100.00;100596.94;5082713;28;20036;-84
2023/04/23 00:23:48;;;;;;;79.80;33.63;;;;;;;6.86;100.00;100601.28;5066051;28;20030;-83
2023/04/23 00:26:13;;;;;;;75.27;31.97;;;;;;;6.85;100.00;100594.25;5099386;28;20428;-84
2023/04/23 00:28:41;;;;;;;73.53;31.87;;;;;;;6.81;100.00;100599.19;5082625;28;20044;-83
2023/04/23 00:31:07;;;;;;;74.57;33.28;;;;;;;6.81;100.00;100606.44;5082878;28;20126;-84
2023/04/23 00:33:33;;;;;;;72.45;30.23;;;;;;;6.81;100.00;100601.06;5099052;28;20530;-83
2023/04/23 00:35:58;;;;;;;71.10;28.80;;;;;;;6.80;100.00;100600.19;5099511;28;20071;-84
2023/04/23 00:38:25;;;;;;;67.03;28.53;;;;;;;6.78;100.00;100594.19;5082460;28;20369;-83
2023/04/23 00:40:50;;;;;;;66.00;29.58;;;;;;;6.78;100.00;100596.88;5066640;28;20020;-84
2023/04/23 00:43:16;;;;;;;62.60;28.73;;;;;;;6.77;100.00;100591.69;5117585;28;20035;-84
2023/04/23 00:45:42;;;;;;;66.57;28.52;;;;;;;6.80;100.00;100586.72;5099156;28;20024;-84
2023/04/23 00:48:07;;;;;;;70.20;28.40;;;;;;;6.85;100.00;100589.69;5081902;28;20032;-84
2023/04/23 00:50:33;;;;;;;68.90;29.20;;;;;;;6.90;100.00;100574.78;5117068;28;20035;-84
2023/04/23 00:52:58;;;;;;;67.07;28.90;;;;;;;6.97;100.00;100581.03;5099840;28;20063;-83
2023/04/23 00:55:24;;;;;;;69.87;28.80;;;;;;;7.02;100.00;100574.00;5099170;28;20031;-84
2023/04/23 00:57:50;;;;;;;69.28;28.05;;;;;;;7.06;100.00;100569.06;5081904;28;20514;-83
2023/04/23 01:00:16;;;;;;;63.63;27.30;;;;;;;7.12;100.00;100565.56;5082536;28;20043;-84
2023/04/23 01:02:43;;;;;;;69.95;29.90;;;;;;;7.17;100.00;100564.94;5098530;28;20502;-83
2023/04/23 01:05:10;;;;;;;64.13;28.15;;;;;;;7.18;100.00;100553.97;5082270;28;20039;-83
2023/04/23 01:07:36;;;;;;;60.57;27.83;;;;;;;7.25;100.00;100556.69;5081464;28;20063;-83
2023/04/23 01:10:05;;;;;;;59.88;27.23;;;;;;;7.25;100.00;100558.53;5098542;28;20084;-83
2023/04/23 01:12:31;;;;;;;62.50;28.25;;;;;;;7.26;100.00;100552.94;5098650;28;20032;-83
2023/04/23 01:14:57;;;;;;;63.38;28.02;;;;;;;7.27;100.00;100554.63;5081913;28;20040;-83
2023/04/23 01:17:23;;;;;;;58.45;27.08;;;;;;;7.25;100.00;100554.00;5064660;28;20096;-83
2023/04/23 01:19:51;;;;;;;61.75;28.02;;;;;;;7.25;100.00;100551.31;5082481;28;20036;-83
2023/04/23 01:22:16;;;;;;;59.20;27.67;;;;;;;7.25;100.00;100545.91;5098737;28;20035;-83
2023/04/23 01:24:42;;;;;;;56.20;27.48;;;;;;;7.27;100.00;100546.53;5098482;28;20039;-83
2023/04/23 01:27:09;;;;;;;56.93;27.30;;;;;;;7.28;100.00;100548.19;5098290;28;20026;-83
2023/04/23 01:29:34;;;;;;;56.22;27.88;;;;;;;7.29;100.00;100554.41;5098383;28;20429;-83
2023/04/23 01:32:02;;;;;;;57.03;26.80;;;;;;;7.33;100.00;100545.72;5098357;28;20042;-84
2023/04/23 01:34:32;;;;;;;53.75;27.13;;;;;;;7.36;100.00;100548.00;5098207;28;20039;-83
2023/04/23 01:36:58;;;;;;;52.45;25.92;;;;;;;7.40;100.00;100543.06;5098315;28;20474;-83
2023/04/23 01:39:24;;;;;;;56.70;27.23;;;;;;;7.43;100.00;100542.66;5098212;28;20046;-83
2023/04/23 01:41:49;;;;;;;52.23;25.63;;;;;;;7.46;100.00;100542.25;5081242;28;20032;-83
2023/04/23 01:44:17;;;;;;;50.17;25.55;;;;;;;7.48;100.00;100542.03;5098160;28;20030;-83
2023/04/23 01:46:43;;;;;;;52.00;25.27;;;;;;;7.51;100.00;100539.78;5116072;28;20054;-83
2023/04/23 01:49:08;;;;;;;51.73;25.63;;;;;;;7.51;100.00;100545.19;5098265;28;20463;-83
2023/04/23 01:51:34;;;;;;;47.27;25.10;;;;;;;7.52;100.00;100546.81;5064440;28;20468;-83
2023/04/23 01:54:00;;;;;;;46.28;23.95;;;;;;;7.50;100.00;100543.50;5116506;28;20028;-83
2023/04/23 01:56:27;;;;;;;44.73;23.40;;;;;;;7.50;100.00;100542.66;5097844;28;20056;-83
2023/04/23 01:58:53;;;;;;;44.60;24.30;;;;;;;7.49;100.00;100546.41;5080961;28;20475;-83
2023/04/23 02:01:19;;;;;;;45.40;23.98;;;;;;;7.45;100.00;100545.97;5115650;28;20028;-83
2023/04/23 02:03:45;;;;;;;38.33;22.23;;;;;;;7.43;100.00;100541.81;5065070;28;20077;-83
2023/04/23 02:06:11;;;;;;;43.17;22.67;;;;;;;7.40;100.00;100553.84;5080823;28;20035;-83
2023/04/23 02:08:38;;;;;;;40.05;22.75;;;;;;;7.40;100.00;100542.22;5097523;28;20027;-84
2023/04/23 02:11:05;;;;;;;40.97;22.65;;;;;;;7.41;100.00;100538.47;5097740;28;20027;-83
2023/04/23 02:13:31;;;;;;;44.77;21.73;;;;;;;7.38;100.00;100535.16;5116037;28;20035;-83
2023/04/23 02:15:56;;;;;;;40.47;21.67;;;;;;;7.38;100.00;100537.88;5080464;28;20054;-83
2023/04/23 02:18:22;;;;;;;37.00;20.57;;;;;;;7.39;100.00;100525.19;5097249;28;20032;-83
2023/04/23 02:20:48;;;;;;;41.05;21.73;;;;;;;7.40;100.00;100529.56;5097480;28;20032;-83
2023/04/23 02:23:13;;;;;;;33.33;19.30;;;;;;;7.47;100.00;100527.72;5063956;28;20036;-83
2023/04/23 02:25:39;;;;;;;37.70;20.85;;;;;;;7.52;100.00;100527.09;5080493;28;20023;-83
2023/04/23 02:28:06;;;;;;;36.40;19.83;;;;;;;7.58;100.00;100536.25;5096996;28;20051;-83
2023/04/23 02:30:32;;;;;;;33.22;19.42;;;;;;;7.61;100.00;100536.69;5096920;28;20617;-83
2023/04/23 02:32:58;;;;;;;31.88;20.17;;;;;;;7.65;100.00;100532.53;5097336;28;20035;-83
2023/04/23 02:35:26;;;;;;;32.07;20.27;;;;;;;7.61;100.00;100528.56;5080233;28;20535;-83
2023/04/23 02:37:53;;;;;;;34.38;19.95;;;;;;;7.57;100.00;100531.91;5080212;28;20494;-83
2023/04/23 02:40:19;;;;;;;32.50;19.92;;;;;;;7.53;100.00;100531.47;5097291;28;20030;-83
2023/04/23 02:42:44;;;;;;;33.55;19.40;;;;;;;7.50;100.00;100534.56;5079966;28;20484;-83
2023/04/23 02:45:13;;;;;;;34.30;20.17;;;;;;;7.46;100.00;100528.75;5115190;28;20032;-83
2023/04/23 02:47:38;;;;;;;33.35;19.73;;;;;;;7.47;100.00;100529.56;5115642;28;20037;-83
2023/04/23 02:50:05;;;;;;;33.80;20.07;;;;;;;7.49;100.00;100519.41;5096703;28;20391;-83
2023/04/23 02:52:31;;;;;;;34.45;20.38;;;;;;;7.49;100.00;100520.25;5097223;28;20027;-83
2023/04/23 02:54:56;;;;;;;35.78;20.83;;;;;;;7.52;100.00;100519.00;5079889;28;20036;-83
2023/04/23 02:57:22;;;;;;;34.03;19.75;;;;;;;7.53;100.00;100526.09;5097271;28;20400;-83
2023/04/23 02:59:49;;;;;;;34.17;20.53;;;;;;;7.58;100.00;100523.59;5096624;28;20102;-83
2023/04/23 03:02:14;;;;;;;38.78;20.90;;;;;;;7.62;100.00;100524.84;5096810;28;20070;-83
2023/04/23 03:04:40;;;;;;;34.30;19.63;;;;;;;7.62;100.00;100519.44;5079730;28;20364;-83
2023/04/23 03:07:05;;;;;;;33.63;20.37;;;;;;;7.63;100.00;100510.31;5079455;28;20227;-84
2023/04/23 03:09:30;;;;;;;34.08;20.13;;;;;;;7.61;100.00;100512.38;5096422;28;20031;-83
2023/04/23 03:11:56;;;;;;;32.73;19.27;;;;;;;7.58;100.00;100520.88;5096251;28;20074;-83
2023/04/23 03:14:22;;;;;;;37.60;19.87;;;;;;;7.57;100.00;100505.72;5063507;28;20424;-83
2023/04/23 03:16:47;;;;;;;34.53;20.38;;;;;;;7.53;100.00;100508.00;5079323;28;20035;-83
2023/04/23 03:19:14;;;;;;;36.00;20.43;;;;;;;7.52;100.00;100509.03;5096449;28;20092;-83
2023/04/23 03:21:39;;;;;;;33.25;19.00;;;;;;;7.54;100.00;100498.88;5114495;28;20035;-83
2023/04/23 03:24:05;;;;;;;33.23;20.03;;;;;;;7.57;100.00;100497.63;5096309;28;20032;-83
2023/04/23 03:26:30;;;;;;;35.10;19.63;;;;;;;7.61;100.00;100495.34;5096148;28;20024;-84
2023/04/23 03:28:56;;;;;;;33.60;19.97;;;;;;;7.66;100.00;100506.38;5062838;28;20042;-83
2023/04/23 03:31:21;;;;;;;36.13;19.80;;;;;;;7.67;100.00;100508.84;5096133;28;20126;-84
2023/04/23 03:33:46;;;;;;;34.50;18.97;;;;;;;7.70;100.00;100504.91;5079230;28;20126;-83
2023/04/23 03:36:12;;;;;;;31.27;19.07;;;;;;;7.72;100.00;100502.84;5079327;28;20035;-84
2023/04/23 03:38:37;;;;;;;33.30;18.92;;;;;;;7.71;100.00;100501.19;5096045;28;20076;-83
2023/04/23 03:41:03;;;;;;;30.97;18.50;;;;;;;7.72;100.00;100502.84;5095923;28;20471;-83
2023/04/23 03:43:31;;;;;;;32.40;20.00;;;;;;;7.75;100.00;100499.75;5079074;28;20181;-83
2023/04/23 03:45:57;;;;;;;33.00;19.30;;;;;;;7.77;100.00;100499.53;5062427;28;20032;-84
2023/04/23 03:48:22;;;;;;;31.50;18.57;;;;;;;7.81;100.00;100507.03;5078969;28;20039;-83
2023/04/23 03:50:48;;;;;;;31.42;18.88;;;;;;;7.81;100.00;100506.19;5114227;28;20024;-84
2023/04/23 03:53:13;;;;;;;32.57;19.27;;;;;;;7.81;100.00;100507.03;5113877;28;20369;-84
2023/04/23 03:55:41;;;;;;;30.27;19.07;;;;;;;7.81;100.00;100498.06;5079488;28;20024;-84
2023/04/23 03:58:08;;;;;;;32.90;19.02;;;;;;;7.80;100.00;100497.25;5095490;28;20032;-84
2023/04/23 04:00:34;;;;;;;33.28;18.58;;;;;;;7.77;100.00;100505.78;5096152;28;20119;-84
2023/04/23 04:03:00;;;;;;;30.10;19.57;;;;;;;7.78;100.00;100503.88;5095432;28;20067;-84
2023/04/23 04:05:26;;;;;;;31.98;19.40;;;;;;;7.75;100.00;100505.16;5078856;28;20096;-83
2023/04/23 04:07:52;;;;;;;31.33;18.95;;;;;;;7.72;100.00;100505.53;5078590;28;20060;-84
2023/04/23 04:10:18;;;;;;;29.40;19.02;;;;;;;7.69;100.00;100511.34;5079254;28;20039;-84
2023/04/23 04:12:46;;;;;;;29.53;18.23;;;;;;;7.64;100.00;100509.28;5063048;28;20363;-84
2023/04/23 04:15:16;;;;;;;32.60;19.15;;;;;;;7.61;100.00;100508.84;5113939;28;20028;-84
2023/04/23 04:17:41;;;;;;;29.48;18.38;;;;;;;7.57;100.00;100519.22;5096129;28;20463;-84
2023/04/23 04:20:08;;;;;;;31.93;18.90;;;;;;;7.57;100.00;100526.50;5079179;28;20032;-84
2023/04/23 04:22:33;;;;;;;32.78;19.05;;;;;;;7.55;100.00;100521.28;5079585;28;20084;-84
2023/04/23 04:24:59;;;;;;;33.90;18.90;;;;;;;7.55;100.00;100511.31;5062622;28;20023;-84
2023/04/23 04:27:24;;;;;;;32.60;18.93;;;;;;;7.57;100.00;100523.78;5095373;28;20035;-84
2023/04/23 04:29:50;;;;;;;34.53;19.13;;;;;;;7.57;100.00;100515.69;5078567;28;20028;-84
2023/04/23 04:32:16;;;;;;;33.15;19.85;;;;;;;7.59;100.00;100521.72;5095459;28;20027;-84
2023/04/23 04:34:41;;;;;;;36.97;20.65;;;;;;;7.58;100.00;100517.38;5096293;28;20032;-84
2023/04/23 04:37:08;;;;;;;34.42;20.08;;;;;;;7.59;100.00;100509.06;5078710;28;20387;-84
2023/04/23 04:39:34;;;;;;;35.10;18.90;;;;;;;7.60;100.00;100512.59;5078828;28;20040;-84
2023/04/23 04:42:01;;;;;;;32.53;19.35;;;;;;;7.56;100.00;100506.78;5078854;28;20520;-84
2023/04/23 04:44:27;;;;;;;35.70;18.90;;;;;;;7.53;100.00;100509.88;5079079;28;20394;-84
2023/04/23 04:46:52;;;;;;;34.03;19.40;;;;;;;7.51;100.00;100512.78;5078871;28;20130;-84
2023/04/23 04:49:18;;;;;;;32.03;19.00;;;;;;;7.49;100.00;100509.44;5095372;28;20031;-83
2023/04/23 04:51:43;;;;;;;31.48;19.17;;;;;;;7.50;100.00;100508.41;5096875;28;20439;-84
2023/04/23 04:54:09;;;;;;;31.27;19.00;;;;;;;7.48;100.00;100506.94;5099352;28;20452;-84
2023/04/23 04:56:34;;;;;;;33.67;19.67;;;;;;;7.51;100.00;100511.94;5081863;28;20472;-84
2023/04/23 04:59:00;;;;;;;31.75;19.13;;;;;;;7.50;100.00;100516.50;5099192;28;20035;-84
2023/04/23 05:01:27;;;;;;;33.80;18.37;;;;;;;7.51;100.00;100518.19;5081954;28;20039;-84
2023/04/23 05:03:53;;;;;;;36.53;19.63;;;;;;;7.53;100.00;100521.50;5117781;28;20024;-84
2023/04/23 05:06:19;;;;;;;34.35;19.25;;;;;;;7.59;100.00;100519.88;5098625;28;20027;-84
2023/04/23 05:08:47;;;;;;;37.90;19.67;;;;;;;7.64;100.00;100514.66;5081955;28;20032;-84
2023/04/23 05:11:18;;;;;;;33.63;19.25;;;;;;;7.71;100.00;100515.50;5082146;28;20467;-84
2023/04/23 05:13:44;;;;;;;34.30;19.33;;;;;;;7.78;100.00;100518.25;5098677;28;20022;-84
2023/04/23 05:16:10;;;;;;;35.63;19.87;;;;;;;7.81;100.00;100512.44;5098984;28;20062;-84
2023/04/23 05:18:37;;;;;;;32.72;19.10;;;;;;;7.87;100.00;100511.59;5098414;28;20058;-83
2023/04/23 05:21:02;;;;;;;35.20;19.45;;;;;;;7.94;100.00;100522.41;5098739;28;20455;-84
2023/04/23 05:23:28;;;;;;;33.57;18.33;;;;;;;7.98;100.00;100512.84;5098548;28;20085;-85
2023/04/23 05:25:55;;;;;;;32.38;19.45;;;;;;;8.02;100.00;100516.81;5081894;28;20020;-84
2023/04/23 05:28:21;;;;;;;30.77;18.30;;;;;;;8.08;100.00;100524.09;5065314;28;20123;-84
2023/04/23 05:30:47;;;;;;;33.20;19.05;;;;;;;8.17;100.00;100521.19;5116355;28;20059;-85
2023/04/23 05:33:12;;;;;;;30.33;18.50;;;;;;;8.16;100.00;100517.63;5081474;28;20028;-83
2023/04/23 05:35:37;;;;;;;29.80;18.17;;;;;;;8.18;100.00;100523.69;5098295;28;20034;-83
2023/04/23 05:38:05;;;;;;;31.02;18.48;;;;;;;8.24;100.00;100530.13;5098383;28;20269;-84
2023/04/23 05:40:30;;;;;;;28.30;18.42;;;;;;;8.30;100.00;100525.75;5081750;28;20463;-84
2023/04/23 05:42:57;;;;;;;30.23;17.80;;;;;;;8.34;100.00;100518.88;5098080;28;20089;-84
2023/04/23 05:45:22;;;;;;;28.23;17.80;;;;;;;8.34;100.00;100517.03;5098102;28;20052;-82
2023/04/23 05:47:48;;;;;;;25.80;16.07;;;;;;;8.35;100.00;100510.56;5081266;28;20147;-84
2023/04/23 05:50:13;;;;;;;28.87;16.80;;;;;;;8.35;100.00;100515.97;5116046;28;20031;-84
2023/04/23 05:52:39;;;;;;;29.17;17.77;;;;;;;8.35;100.00;100510.56;5097961;28;20422;-84
2023/04/23 05:55:06;;;;;;;24.27;16.33;;;;;;;8.38;100.00;100517.44;5097904;28;20035;-83
2023/04/23 05:57:32;;;;;;;26.10;15.47;;;;;;;8.41;100.00;100515.16;5097848;28;20464;-83
2023/04/23 05:59:57;;;;;;;24.98;16.73;;;;;;;8.45;100.00;100512.06;5081308;28;20035;-83
2023/04/23 06:02:23;;;;;;;25.70;16.23;;;;;;;8.47;100.00;100513.50;5097747;28;20102;-84
2023/04/23 06:04:49;;;;;;;27.38;16.83;;;;;;;8.49;100.00;100514.13;5078797;28;20039;-84
2023/04/23 06:07:15;;;;;;;27.23;15.80;;;;;;;8.52;100.00;100510.16;5097386;28;20050;-83
2023/04/23 06:09:40;;;;;;;28.83;16.15;;;;;;;8.56;100.00;100506.84;5080910;28;20032;-84
2023/04/23 06:12:06;;;;;;;23.65;16.08;;;;;;;8.63;100.00;100512.22;5080678;28;20027;-85
2023/04/23 06:14:31;;;;;;;26.13;15.73;;;;;;;8.68;100.00;100507.03;5097219;28;20035;-85
2023/04/23 06:17:00;;;;;;;25.20;16.38;;;;;;;8.74;100.00;100502.63;5079811;28;20089;-85
2023/04/23 06:19:26;;;;;;;26.52;15.50;;;;;;;8.78;100.00;100498.47;5098026;28;20118;-85
2023/04/23 06:21:52;;;;;;;25.25;15.82;;;;;;;8.82;100.00;100507.00;5097419;28;20023;-84
2023/04/23 06:24:21;;;;;;;25.42;14.93;;;;;;;8.89;100.00;100491.59;5097429;28;20437;-85
2023/04/23 06:26:46;;;;;;;26.67;15.68;;;;;;;8.95;100.00;100486.16;5097396;28;20035;-84
2023/04/23 06:29:12;;;;;;;25.67;15.17;;;;;;;9.04;100.00;100481.31;5097207;28;20031;-84
2023/04/23 06:31:43;;;;;;;22.60;14.40;;;;;;;9.15;100.00;100487.13;5096632;28;20088;-85
2023/04/23 06:34:09;;;;;;;25.77;15.57;;;;;;;9.23;100.00;100482.28;5097359;28;20027;-84
2023/04/23 06:36:34;;;;;;;23.60;14.65;;;;;;;9.28;100.00;100487.88;5097563;28;20359;-84
2023/04/23 06:38:59;;;;;;;24.40;14.90;;;;;;;9.35;100.00;100485.16;5097031;28;20035;-83
2023/04/23 06:41:25;;;;;;;21.37;13.77;;;;;;;9.38;100.00;100475.75;5097382;28;20123;-82
2023/04/23 06:43:50;;;;;;;25.60;13.43;;;;;;;9.42;100.00;100482.38;5096604;28;20472;-83
2023/04/23 06:46:16;;;;;;;20.47;13.17;;;;;;;9.48;100.00;100487.78;5115398;28;20107;-83
2023/04/23 06:48:41;;;;;;;20.23;12.50;;;;;;;9.57;100.00;100499.19;5080173;28;20675;-83
2023/04/23 06:51:09;;;;;;;20.53;12.03;;;;;;;9.61;100.00;100473.34;5080027;28;20459;-83
2023/04/23 06:53:35;;;;;;;18.33;11.82;;;;;;;9.70;100.00;100479.31;5097399;28;20490;-83
2023/04/23 06:56:00;;;;;;;18.93;11.83;;;;;;;9.74;100.00;100477.00;5096908;28;20035;-83
2023/04/23 06:58:30;;;;;;;15.95;10.50;;;;;;;9.85;100.00;100476.31;5096993;28;20032;-83
2023/04/23 07:00:59;;;;;;;17.93;11.63;;;;;;;9.92;100.00;100478.94;5080988;28;20088;-83
2023/04/23 07:03:28;;;;;;;17.48;11.10;;;;;;;9.99;100.00;100475.16;5097290;28;20020;-83
2023/04/23 07:05:54;;;;;;;13.68;9.27;;;;;;;10.08;100.00;100472.97;5114767;28;20023;-83
2023/04/23 07:08:22;;;;;;;18.40;9.40;;;;;;;10.18;100.00;100464.34;5079368;28;20052;-83
2023/04/23 07:10:47;;;;;;;18.45;9.90;;;;;;;10.26;100.00;100465.94;5115028;28;20028;-83
2023/04/23 07:13:13;;;;;;;17.80;9.17;;;;;;;10.32;100.00;100471.31;5096236;28;20023;-83
2023/04/23 07:15:40;;;;;;;13.02;7.00;;;;;;;10.40;100.00;100464.81;5079102;28;20394;-83
2023/04/23 07:18:06;;;;;;;12.52;8.02;;;;;;;10.50;100.00;100469.72;5114829;28;20367;-83
2023/04/23 07:20:32;;;;;;;17.83;7.20;;;;;;;10.64;100.00;100479.38;5095941;28;20031;-83
2023/04/23 07:22:58;;;;;;;11.47;7.23;;;;;;;10.67;100.00;100467.25;5079809;28;20031;-83
2023/04/23 07:25:25;;;;;;;14.75;6.80;;;;;;;10.75;100.00;100466.09;5096807;28;20119;-83
2023/04/23 07:27:52;;;;;;;17.70;6.45;;;;;;;10.79;100.00;100456.47;5096590;28;20450;-83
2023/04/23 07:30:20;;;;;;;11.50;5.35;;;;;;;10.89;100.00;100475.75;5114373;28;20029;-84
2023/04/23 07:32:46;;;;;;;13.32;6.47;;;;;;;10.92;100.00;100461.75;5079794;28;20416;-83
2023/04/23 07:35:12;;;;;;;12.00;5.35;;;;;;;10.93;100.00;100452.53;5079292;28;20089;-83
2023/04/23 07:37:37;;;;;;;15.13;5.93;;;;;;;11.03;100.00;100457.44;5096026;28;20034;-83
2023/04/23 07:40:04;;;;;;;9.43;5.45;;;;;;;11.09;100.00;100453.81;5095561;28;20026;-83
2023/04/23 07:42:31;;;;;;;13.40;5.20;;;;;;;11.16;100.00;100451.00;5079213;28;20035;-84
2023/04/23 07:44:56;;;;;;;11.77;5.00;;;;;;;11.17;100.00;100458.91;5113959;28;20084;-83
2023/04/23 07:47:21;;;;;;;13.32;5.22;;;;;;;11.23;100.00;100457.19;5079010;28;20028;-83
2023/04/23 07:49:47;;;;;;;20.03;6.03;;;;;;;11.23;100.00;100439.00;5095775;28;20020;-83
2023/04/23 07:52:12;;;;;;;10.57;4.93;;;;;;;11.28;100.00;100453.75;5079036;28;20035;-83
2023/04/23 07:54:38;;;;;;;11.13;4.70;;;;;;;11.34;100.00;100448.25;5062128;28;20032;-83
2023/04/23 07:57:03;;;;;;;10.57;4.50;;;;;;;11.47;100.00;100441.81;5095764;28;20034;-84
2023/04/23 07:59:29;;;;;;;14.17;5.27;;;;;;;11.49;100.00;100439.69;5079036;28;20426;-85
2023/04/23 08:01:54;;;;;;;10.03;4.00;;;;;;;11.55;100.00;100446.09;5078638;28;20141;-81
2023/04/23 08:04:20;;;;;;;13.37;5.07;;;;;;;11.66;100.00;100447.16;5079330;28;20396;-82
2023/04/23 08:06:45;;;;;;;11.17;4.03;;;;;;;11.74;100.00;100444.13;5061857;28;20382;-82
2023/04/23 08:09:11;;;;;;;10.27;3.83;;;;;;;11.81;100.00;100438.56;5061877;28;20059;-82
2023/04/23 08:11:36;;;;;;;15.80;4.80;;;;;;;11.85;100.00;100440.59;5095600;28;20117;-81
2023/04/23 08:14:02;;;;;;;10.33;4.03;;;;;;;11.93;100.00;100442.19;5095596;28;20388;-82
2023/04/23 08:16:27;;;;;;;9.83;3.70;;;;;;;11.96;100.00;100439.00;5062313;28;20274;-82
2023/04/23 08:18:53;;;;;;;12.83;3.77;;;;;;;12.01;100.00;100430.13;5095886;28;20416;-82
2023/04/23 08:21:18;;;;;;;9.17;3.60;;;;;;;12.06;100.00;100428.38;5061620;28;20039;-82
2023/04/23 08:23:44;;;;;;;10.32;3.78;;;;;;;12.16;100.00;100426.94;5095756;28;20039;-82
2023/04/23 08:26:09;;;;;;;10.03;3.60;;;;;;;12.23;100.00;100423.03;5095766;28;20532;-83
2023/04/23 08:28:35;;;;;;;13.83;3.77;;;;;;;12.31;100.00;100416.41;5082498;28;20387;-82
2023/04/23 08:31:00;;;;;;;13.00;3.38;;;;;;;12.39;100.00;100415.25;5065826;28;20475;-82
2023/04/23 08:33:26;;;;;;;11.27;3.20;;;;;;;12.52;100.00;100420.44;5117481;28;20032;-82
2023/04/23 08:35:51;;;;;;;10.07;3.33;;;;;;;12.62;100.00;100422.53;5082184;28;20036;-82
2023/04/23 08:38:17;;;;;;;6.65;3.10;;;;;;;12.75;100.00;100416.00;5117501;28;20039;-82
2023/04/23 08:40:45;;;;;;;9.17;3.07;;;;;;;12.95;100.00;100419.13;5082421;28;20038;-82
2023/04/23 08:43:19;;;;;;;11.57;3.13;;;;;;;13.10;99.07;100424.06;5117304;28;20028;-82
2023/04/23 08:45:47;;;;;;;7.80;2.97;;;;;;;13.19;97.55;100419.06;5099613;28;20027;-82
2023/04/23 08:48:13;;;;;;;11.43;2.83;;;;;;;13.35;97.25;100419.38;5081896;28;20020;-82
2023/04/23 08:50:41;;;;;;;8.52;2.63;;;;;;;13.50;95.33;100415.03;5099649;28;20143;-82
2023/04/23 08:53:07;;;;;;;15.80;3.65;;;;;;;13.57;90.94;100412.16;5117935;28;20064;-81
2023/04/23 08:55:34;;;;;;;5.87;2.27;;;;;;;13.63;90.69;100413.06;5117321;28;20032;-81
2023/04/23 08:58:00;;;;;;;12.25;2.53;;;;;;;13.72;92.51;100414.31;5117229;28;20027;-82
2023/04/23 09:00:25;;;;;;;6.47;2.20;;;;;;;13.94;92.68;100410.84;5099075;28;20019;-82
2023/04/23 09:02:51;;;;;;;6.77;2.07;;;;;;;14.06;89.28;100403.41;5098768;28;20080;-82
2023/04/23 09:05:17;;;;;;;10.68;2.55;;;;;;;14.13;88.89;100408.66;5098823;28;20076;-83
2023/04/23 09:07:43;;;;;;;11.40;2.33;;;;;;;14.16;87.56;100413.66;5081875;28;20085;-82
2023/04/23 09:10:11;;;;;;;7.88;2.35;;;;;;;14.13;86.02;100403.22;5098634;28;20489;-82
2023/04/23 09:12:39;;;;;;;7.05;1.85;;;;;;;14.13;85.11;100411.38;5098880;28;20058;-82
2023/04/23 09:15:09;;;;;;;7.45;1.88;;;;;;;14.20;83.50;100403.88;5098875;28;20028;-82
2023/04/23 09:17:38;;;;;;;7.00;1.90;;;;;;;14.31;81.98;100410.31;5082288;28;20039;-82
2023/04/23 09:20:05;;;;;;;9.73;2.50;;;;;;;14.38;80.32;100409.06;5098282;28;20073;-82
2023/04/23 09:23:00;;;;;;;5.60;1.77;;;;;;;14.51;82.65;100402.41;5082228;28;20023;-82
2023/04/23 09:25:25;;;;;;;9.80;2.38;;;;;;;14.59;75.77;100397.59;5094669;28;20085;-82
2023/04/23 09:27:51;;;;;;;7.40;1.33;;;;;;;14.67;75.66;100397.16;5098913;28;20032;-82
2023/04/23 09:30:18;;;;;;;6.63;1.38;;;;;;;14.79;76.11;100394.31;5097863;28;20035;-82
2023/04/23 09:32:45;;;;;;;7.00;1.70;;;;;;;14.97;74.77;100388.53;5064862;28;20118;-82
2023/04/23 09:35:16;;;;;;;6.93;1.30;;;;;;;15.14;76.40;100384.88;5117116;28;20124;-82
2023/04/23 09:37:47;;;;;;;5.55;1.40;;;;;;;15.36;72.24;100384.81;5081078;28;20068;-82
2023/04/23 09:40:18;;;;;;;7.05;1.40;;;;;;;15.55;72.30;100382.53;5098505;28;20491;-82
2023/04/23 09:42:53;;;;;;;7.47;1.52;;;;;;;15.90;72.73;100386.66;5116449;28;20032;-82
2023/04/23 09:45:19;;;;;;;5.68;1.33;;;;;;;16.08;67.62;100379.97;5098820;28;20036;-82
2023/04/23 09:47:50;;;;;;;4.57;1.37;;;;;;;16.14;68.44;100395.34;5081949;28;20031;-82
2023/04/23 09:50:16;;;;;;;5.97;1.45;;;;;;;16.18;66.16;100374.56;5098645;28;20118;-83
2023/04/23 09:52:42;;;;;;;4.20;1.40;;;;;;;16.26;66.14;100370.50;5098353;28;20122;-82
2023/04/23 09:55:08;;;;;;;5.90;1.53;;;;;;;16.21;63.90;100378.66;5097908;28;20505;-82
2023/04/23 09:57:40;;;;;;;6.45;1.45;;;;;;;16.03;66.45;100380.75;5098221;28;20024;-82
2023/04/23 10:00:17;;;;;;;7.15;2.05;;;;;;;15.95;67.28;100382.06;5097596;28;20155;-83
2023/04/23 10:02:48;;;;;;;5.67;1.53;;;;;;;16.05;67.82;100378.59;5081482;28;20089;-83
2023/04/23 10:05:18;;;;;;;6.50;1.40;;;;;;;16.21;64.66;100376.78;5115614;28;20035;-83
2023/04/23 10:07:53;;;;;;;5.75;1.55;;;;;;;16.18;65.16;100368.25;5097074;28;20100;-83
2023/04/23 10:10:19;;;;;;;6.82;1.98;;;;;;;16.31;65.00;100374.09;5067070;28;20059;-83
2023/04/23 10:12:46;;;;;;;6.78;1.70;;;;;;;16.49;66.86;100370.06;5115950;28;20039;-83
2023/04/23 10:15:13;;;;;;;8.73;1.70;;;;;;;16.61;65.44;100369.84;5098244;28;20058;-83
2023/04/23 10:17:39;;;;;;;8.90;1.77;;;;;;;16.69;63.43;100335.63;5116182;28;20027;-83
2023/04/23 10:20:07;;;;;;;8.77;1.85;;;;;;;16.73;63.32;100360.59;5097397;28;20027;-83
2023/04/23 10:22:34;;;;;;;7.15;1.50;;;;;;;16.77;64.62;100362.53;5098093;28;20041;-83
2023/04/23 10:25:05;;;;;;;7.78;1.83;;;;;;;17.01;65.68;100359.34;5080720;28;20384;-83
2023/04/23 10:27:30;;;;;;;6.60;1.60;;;;;;;17.14;63.95;100363.47;5081886;28;20027;-83
2023/04/23 10:29:57;;;;;;;5.22;1.40;;;;;;;17.12;63.32;100357.44;5063632;28;20135;-83
2023/04/23 10:32:23;;;;;;;5.97;1.88;;;;;;;16.90;63.50;100347.50;5114868;28;20451;-84
2023/04/23 10:34:49;;;;;;;4.03;1.50;;;;;;;16.76;63.83;100344.44;5097290;28;20057;-83
2023/04/23 10:37:18;;;;;;;7.53;1.37;;;;;;;16.63;64.04;100351.22;5097259;28;20269;-83
2023/04/23 10:39:46;;;;;;;6.57;1.90;;;;;;;16.54;63.26;100349.28;5097502;28;20031;-82
2023/04/23 10:42:12;;;;;;;6.25;1.50;;;;;;;16.45;63.78;100351.72;5115365;28;20092;-82
2023/04/23 10:44:41;;;;;;;6.47;1.70;;;;;;;16.64;63.68;100349.34;5096685;28;20031;-83
2023/04/23 10:47:14;;;;;;;3.97;1.10;;;;;;;16.60;63.07;100343.56;5096834;28;20027;-82
2023/04/23 10:49:41;;;;;;;5.30;1.42;;;;;;;16.58;62.67;100344.91;5096119;28;20059;-83
2023/04/23 10:52:13;;;;;;;4.68;1.40;;;;;;;16.72;63.22;100328.81;5080185;28;20114;-82
2023/04/23 10:54:40;;;;;;;5.88;1.38;;;;;;;16.92;62.87;100328.06;5096671;28;20027;-83
2023/04/23 10:57:07;;;;;;;6.70;1.50;;;;;;;17.22;63.40;100327.28;5079944;28;20036;-83
2023/04/23 10:59:35;;;;;;;5.37;1.50;;;;;;;17.57;61.27;100324.81;5079573;28;20027;-83
2023/04/23 11:02:10;;;;;;;5.55;1.60;;;;;;;17.61;61.89;100315.81;5096634;28;20032;-82
2023/04/23 11:04:41;;;;;;;6.57;1.67;;;;;;;17.64;62.13;100319.88;5096339;28;20486;-83
2023/04/23 11:07:08;;;;;;;4.15;1.92;;;;;;;17.36;61.57;100303.72;5114399;28;20055;-82
2023/04/23 11:09:33;;;;;;;7.03;1.70;;;;;;;17.01;63.42;100305.34;5079638;28;20110;-83